sensor_id;sensor_type;location;lat;lon;timestamp;pressure;altitude;pressure_sealevel;temperature;humidity
3150;BME280;32503;47.748;8.960;2024-03-17T00:01:42;97590.94;;;10.73;66.67
3150;BME280;32503;47.748;8.960;2024-03-17T00:04:09;97591.84;;;10.65;66.86
3150;BME280;32503;47.748;8.960;2024-03-17T00:06:37;97596.94;;;10.66;66.52
3150;BME280;32503;47.748;8.960;2024-03-17T00:09:04;97592.75;;;10.69;66.94
3150;BME280;32503;47.748;8.960;2024-03-17T00:11:32;97596.13;;;10.66;67.17
3150;BME280;32503;47.748;8.960;2024-03-17T00:14:01;97582.69;;;10.57;66.32
3150;BME280;32503;47.748;8.960;2024-03-17T00:16:27;97596.00;;;10.62;67.08
3150;BME280;32503;47.748;8.960;2024-03-17T00:18:54;97592.06;;;10.59;67.39
3150;BME280;32503;47.748;8.960;2024-03-17T00:21:21;97584.28;;;10.46;67.06
3150;BME280;32503;47.748;8.960;2024-03-17T00:23:49;97588.19;;;10.48;67.39
3150;BME280;32503;47.748;8.960;2024-03-17T00:26:16;97572.91;;;10.52;67.00
3150;BME280;32503;47.748;8.960;2024-03-17T00:28:45;97582.81;;;10.60;67.07
3150;BME280;32503;47.748;8.960;2024-03-17T00:31:14;97578.53;;;10.59;67.46
3150;BME280;32503;47.748;8.960;2024-03-17T00:33:41;97572.34;;;10.59;67.55
3150;BME280;32503;47.748;8.960;2024-03-17T00:36:08;97561.16;;;10.48;67.90
3150;BME280;32503;47.748;8.960;2024-03-17T00:38:35;97573.25;;;10.63;67.38
3150;BME280;32503;47.748;8.960;2024-03-17T00:41:04;97572.00;;;10.60;68.08
3150;BME280;32503;47.748;8.960;2024-03-17T00:43:32;97551.72;;;10.42;67.57
3150;BME280;32503;47.748;8.960;2024-03-17T00:45:58;97572.91;;;10.52;67.53
3150;BME280;32503;47.748;8.960;2024-03-17T00:48:25;97563.44;;;10.46;67.80
3150;BME280;32503;47.748;8.960;2024-03-17T00:50:56;97578.09;;;10.45;68.38
3150;BME280;32503;47.748;8.960;2024-03-17T00:53:24;97561.16;;;10.48;68.06
3150;BME280;32503;47.748;8.960;2024-03-17T00:55:53;97571.19;;;10.48;68.35
3150;BME280;32503;47.748;8.960;2024-03-17T00:58:21;97564.34;;;10.50;67.72
3150;BME280;32503;47.748;8.960;2024-03-17T01:00:48;97564.13;;;10.55;68.24
3150;BME280;32503;47.748;8.960;2024-03-17T01:03:15;97567.63;;;10.56;68.11
3150;BME280;32503;47.748;8.960;2024-03-17T01:05:41;97575.06;;;10.59;68.07
3150;BME280;32503;47.748;8.960;2024-03-17T01:08:10;97568.50;;;10.60;67.97
3150;BME280;32503;47.748;8.960;2024-03-17T01:10:38;97562.31;;;10.59;67.93
3150;BME280;32503;47.748;8.960;2024-03-17T01:13:06;97556.91;;;10.59;67.88
3150;BME280;32503;47.748;8.960;2024-03-17T01:15:35;97550.63;;;10.55;67.63
3150;BME280;32503;47.748;8.960;2024-03-17T01:18:03;97551.94;;;10.49;67.92
3150;BME280;32503;47.748;8.960;2024-03-17T01:20:30;97554.31;;;10.51;67.26
3150;BME280;32503;47.748;8.960;2024-03-17T01:22:57;97557.47;;;10.53;68.33
3150;BME280;32503;47.748;8.960;2024-03-17T01:25:23;97549.81;;;10.55;67.64
3150;BME280;32503;47.748;8.960;2024-03-17T01:27:51;97542.03;;;10.53;67.66
3150;BME280;32503;47.748;8.960;2024-03-17T01:30:17;97535.50;;;10.42;68.29
3150;BME280;32503;47.748;8.960;2024-03-17T01:32:46;97533.91;;;10.41;68.70
3150;BME280;32503;47.748;8.960;2024-03-17T01:35:12;97528.38;;;10.37;68.57
3150;BME280;32503;47.748;8.960;2024-03-17T01:37:40;97523.09;;;10.41;68.51
3150;BME280;32503;47.748;8.960;2024-03-17T01:40:07;97520.06;;;10.42;68.05
3150;BME280;32503;47.748;8.960;2024-03-17T01:42:35;97523.69;;;10.34;68.57
3150;BME280;32503;47.748;8.960;2024-03-17T01:45:01;97518.72;;;10.36;68.33
3150;BME280;32503;47.748;8.960;2024-03-17T01:47:28;97521.09;;;10.38;68.32
3150;BME280;32503;47.748;8.960;2024-03-17T01:49:55;97513.03;;;10.29;69.00
3150;BME280;32503;47.748;8.960;2024-03-17T01:52:22;97522.25;;;10.28;69.40
3150;BME280;32503;47.748;8.960;2024-03-17T01:54:48;97514.81;;;10.25;69.54
3150;BME280;32503;47.748;8.960;2024-03-17T01:57:16;97510.22;;;10.25;68.63
3150;BME280;32503;47.748;8.960;2024-03-17T01:59:42;97481.28;;;10.14;68.79
3150;BME280;32503;47.748;8.960;2024-03-17T02:02:09;97501.91;;;10.31;69.49
3150;BME280;32503;47.748;8.960;2024-03-17T02:04:35;97498.09;;;10.32;68.47
3150;BME280;32503;47.748;8.960;2024-03-17T02:07:03;97495.06;;;10.33;69.10
3150;BME280;32503;47.748;8.960;2024-03-17T02:09:29;97496.66;;;10.34;68.69
3150;BME280;32503;47.748;8.960;2024-03-17T02:11:56;97483.69;;;10.40;68.53
3150;BME280;32503;47.748;8.960;2024-03-17T02:14:22;97480.66;;;10.41;68.60
3150;BME280;32503;47.748;8.960;2024-03-17T02:16:49;97486.16;;;10.45;68.63
3150;BME280;32503;47.748;8.960;2024-03-17T02:19:15;97488.44;;;10.43;68.52
3150;BME280;32503;47.748;8.960;2024-03-17T02:21:42;97477.38;;;10.36;68.47
3150;BME280;32503;47.748;8.960;2024-03-17T02:24:10;97482.78;;;10.36;68.88
3150;BME280;32503;47.748;8.960;2024-03-17T02:26:37;97480.44;;;10.34;68.32
3150;BME280;32503;47.748;8.960;2024-03-17T02:29:04;97468.09;;;10.24;69.21
3150;BME280;32503;47.748;8.960;2024-03-17T02:31:31;97470.69;;;10.21;69.50
3150;BME280;32503;47.748;8.960;2024-03-17T02:33:57;97474.06;;;10.18;68.83
3150;BME280;32503;47.748;8.960;2024-03-17T02:36:24;97480.28;;;10.18;69.17
3150;BME280;32503;47.748;8.960;2024-03-17T02:38:50;97469.34;;;10.15;69.52
3150;BME280;32503;47.748;8.960;2024-03-17T02:41:36;97464.81;;;10.06;69.37
3150;BME280;32503;47.748;8.960;2024-03-17T02:44:03;97462.00;;;10.03;70.14
3150;BME280;32503;47.748;8.960;2024-03-17T02:46:31;97459.63;;;10.01;69.87
3150;BME280;32503;47.748;8.960;2024-03-17T02:48:59;97461.78;;;10.08;69.49
3150;BME280;32503;47.748;8.960;2024-03-17T02:51:27;97462.56;;;10.09;69.85
3150;BME280;32503;47.748;8.960;2024-03-17T02:53:55;97449.19;;;10.12;69.27
3150;BME280;32503;47.748;8.960;2024-03-17T02:56:22;97440.41;;;10.15;69.89
3150;BME280;32503;47.748;8.960;2024-03-17T02:58:50;97437.25;;;10.13;69.75
3150;BME280;32503;47.748;8.960;2024-03-17T03:01:17;97431.84;;;10.13;69.46
3150;BME280;32503;47.748;8.960;2024-03-17T03:03:45;97431.84;;;10.13;69.46
3150;BME280;32503;47.748;8.960;2024-03-17T03:06:12;97429.50;;;10.12;69.01
3150;BME280;32503;47.748;8.960;2024-03-17T03:08:39;97418.78;;;10.03;69.21
3150;BME280;32503;47.748;8.960;2024-03-17T03:11:08;97441.53;;;10.14;69.59
3150;BME280;32503;47.748;8.960;2024-03-17T03:13:37;97441.75;;;10.09;69.24
3150;BME280;32503;47.748;8.960;2024-03-17T03:16:07;97439.50;;;10.11;70.21
3150;BME280;32503;47.748;8.960;2024-03-17T03:18:35;97449.63;;;10.14;69.36
3150;BME280;32503;47.748;8.960;2024-03-17T03:21:02;97446.94;;;10.14;69.71
3150;BME280;32503;47.748;8.960;2024-03-17T03:23:30;97452.22;;;10.11;70.07
3150;BME280;32503;47.748;8.960;2024-03-17T03:25:57;97450.06;;;10.04;70.38
3150;BME280;32503;47.748;8.960;2024-03-17T03:28:25;97446.59;;;10.03;70.33
3150;BME280;32503;47.748;8.960;2024-03-17T03:30:53;97445.25;;;9.97;70.54
3150;BME280;32503;47.748;8.960;2024-03-17T03:33:21;97450.63;;;9.97;70.84
3150;BME280;32503;47.748;8.960;2024-03-17T03:35:49;97439.03;;;9.97;69.59
3150;BME280;32503;47.748;8.960;2024-03-17T03:38:17;97436.91;;;10.02;70.13
3150;BME280;32503;47.748;8.960;2024-03-17T03:40:44;97430.38;;;10.03;69.93
3150;BME280;32503;47.748;8.960;2024-03-17T03:43:13;97437.69;;;10.03;69.85
3150;BME280;32503;47.748;8.960;2024-03-17T03:45:41;97437.25;;;10.01;69.63
3150;BME280;32503;47.748;8.960;2024-03-17T03:48:08;97439.94;;;10.01;69.13
3150;BME280;32503;47.748;8.960;2024-03-17T03:50:37;97439.25;;;10.04;69.13
3150;BME280;32503;47.748;8.960;2024-03-17T03:53:05;97445.81;;;10.03;68.81
3150;BME280;32503;47.748;8.960;2024-03-17T03:55:32;97450.75;;;10.01;69.90
3150;BME280;32503;47.748;8.960;2024-03-17T03:57:59;97443.88;;;9.91;70.38
3150;BME280;32503;47.748;8.960;2024-03-17T04:00:26;97441.50;;;9.90;69.47
3150;BME280;32503;47.748;8.960;2024-03-17T04:02:59;97444.66;;;9.92;69.42
3150;BME280;32503;47.748;8.960;2024-03-17T04:05:27;97425.06;;;9.82;70.17
3150;BME280;32503;47.748;8.960;2024-03-17T04:07:56;97436.53;;;9.92;69.66
3150;BME280;32503;47.748;8.960;2024-03-17T04:10:24;97432.28;;;9.91;69.91
3150;BME280;32503;47.748;8.960;2024-03-17T04:12:52;97434.53;;;9.89;70.00
3150;BME280;32503;47.748;8.960;2024-03-17T04:15:19;97437.78;;;9.82;69.82
3150;BME280;32503;47.748;8.960;2024-03-17T04:17:46;97436.09;;;9.90;69.57
3150;BME280;32503;47.748;8.960;2024-03-17T04:20:13;97436.78;;;9.86;70.06
3150;BME280;32503;47.748;8.960;2024-03-17T04:22:42;97434.97;;;9.78;70.54
3150;BME280;32503;47.748;8.960;2024-03-17T04:25:11;97440.38;;;9.78;70.64
3150;BME280;32503;47.748;8.960;2024-03-17T04:27:39;97436.41;;;9.76;70.01
3150;BME280;32503;47.748;8.960;2024-03-17T04:30:07;97443.28;;;9.73;70.70
3150;BME280;32503;47.748;8.960;2024-03-17T04:32:37;97437.88;;;9.73;71.24
3150;BME280;32503;47.748;8.960;2024-03-17T04:35:05;97446.63;;;9.70;70.65
3150;BME280;32503;47.748;8.960;2024-03-17T04:37:32;97440.56;;;9.73;70.42
3150;BME280;32503;47.748;8.960;2024-03-17T04:40:06;97440.56;;;9.73;70.69
3150;BME280;32503;47.748;8.960;2024-03-17T04:42:36;97438.97;;;9.72;71.28
3150;BME280;32503;47.748;8.960;2024-03-17T04:45:07;97419.59;;;9.58;70.38
3150;BME280;32503;47.748;8.960;2024-03-17T04:47:36;97443.59;;;9.72;69.99
3150;BME280;32503;47.748;8.960;2024-03-17T04:50:04;97435.84;;;9.70;70.46
3150;BME280;32503;47.748;8.960;2024-03-17T04:52:31;97442.25;;;9.65;70.95
3150;BME280;32503;47.748;8.960;2024-03-17T04:54:59;97416.22;;;9.48;70.47
3150;BME280;32503;47.748;8.960;2024-03-17T04:57:26;97439.44;;;9.62;70.27
3150;BME280;32503;47.748;8.960;2024-03-17T04:59:54;97445.72;;;9.66;70.46
3150;BME280;32503;47.748;8.960;2024-03-17T05:02:21;97448.75;;;9.64;70.62
3150;BME280;32503;47.748;8.960;2024-03-17T05:04:49;97437.59;;;9.54;70.63
3150;BME280;32503;47.748;8.960;2024-03-17T05:07:16;97435.81;;;9.58;69.81
3150;BME280;32503;47.748;8.960;2024-03-17T05:09:43;97443.91;;;9.58;69.83
3150;BME280;32503;47.748;8.960;2024-03-17T05:12:10;97423.41;;;9.44;69.53
3150;BME280;32503;47.748;8.960;2024-03-17T05:14:38;97452.31;;;9.56;69.59
3150;BME280;32503;47.748;8.960;2024-03-17T05:17:06;97443.31;;;9.52;69.60
3150;BME280;32503;47.748;8.960;2024-03-17T05:19:33;97451.31;;;9.48;70.15
3150;BME280;32503;47.748;8.960;2024-03-17T05:22:00;97434.94;;;9.33;70.11
3150;BME280;32503;47.748;8.960;2024-03-17T05:24:27;97448.69;;;9.40;69.72
3150;BME280;32503;47.748;8.960;2024-03-17T05:26:54;97426.66;;;9.17;70.39
3150;BME280;32503;47.748;8.960;2024-03-17T05:29:23;97436.34;;;9.18;70.52
3150;BME280;32503;47.748;8.960;2024-03-17T05:31:50;97450.56;;;9.27;70.65
3150;BME280;32503;47.748;8.960;2024-03-17T05:34:19;97451.06;;;9.20;70.10
3150;BME280;32503;47.748;8.960;2024-03-17T05:36:46;97450.50;;;9.15;69.96
3150;BME280;32503;47.748;8.960;2024-03-17T05:39:13;97452.06;;;9.16;70.64
3150;BME280;32503;47.748;8.960;2024-03-17T05:41:41;97450.16;;;9.16;70.42
3150;BME280;32503;47.748;8.960;2024-03-17T05:44:09;97441.94;;;9.13;70.35
3150;BME280;32503;47.748;8.960;2024-03-17T05:46:38;97455.25;;;9.18;70.31
3150;BME280;32503;47.748;8.960;2024-03-17T05:49:05;97451.19;;;9.24;70.27
3150;BME280;32503;47.748;8.960;2024-03-17T05:51:34;97449.34;;;9.37;69.81
3150;BME280;32503;47.748;8.960;2024-03-17T05:54:01;97430.25;;;9.42;69.90
3150;BME280;32503;47.748;8.960;2024-03-17T05:56:28;97449.78;;;9.72;68.62
3150;BME280;32503;47.748;8.960;2024-03-17T05:58:55;97441.72;;;9.84;68.89
3150;BME280;32503;47.748;8.960;2024-03-17T06:01:22;97451.50;;;9.89;68.19
3150;BME280;32503;47.748;8.960;2024-03-17T06:03:49;97447.22;;;9.88;68.44
3150;BME280;32503;47.748;8.960;2024-03-17T06:06:16;97441.28;;;9.95;67.98
3150;BME280;32503;47.748;8.960;2024-03-17T06:08:45;97455.16;;;10.18;67.58
3150;BME280;32503;47.748;8.960;2024-03-17T06:11:12;97464.78;;;10.52;66.64
3150;BME280;32503;47.748;8.960;2024-03-17T06:13:39;97470.59;;;10.67;65.56
3150;BME280;32503;47.748;8.960;2024-03-17T06:16:06;97468.34;;;10.69;65.24
3150;BME280;32503;47.748;8.960;2024-03-17T06:18:34;97469.72;;;10.75;65.11
3150;BME280;32503;47.748;8.960;2024-03-17T06:21:04;97458.59;;;11.05;65.25
3150;BME280;32503;47.748;8.960;2024-03-17T06:23:31;97460.97;;;11.34;64.49
3150;BME280;32503;47.748;8.960;2024-03-17T06:26:00;97469.94;;;11.51;63.47
3150;BME280;32503;47.748;8.960;2024-03-17T06:28:28;97455.78;;;11.57;63.15
3150;BME280;32503;47.748;8.960;2024-03-17T06:30:57;97458.47;;;11.86;62.49
3150;BME280;32503;47.748;8.960;2024-03-17T06:33:26;97469.00;;;12.03;62.33
3150;BME280;32503;47.748;8.960;2024-03-17T06:35:54;97469.72;;;12.32;61.74
3150;BME280;32503;47.748;8.960;2024-03-17T06:38:21;97426.34;;;12.32;60.64
3150;BME280;32503;47.748;8.960;2024-03-17T06:40:49;97473.63;;;13.02;59.55
3150;BME280;32503;47.748;8.960;2024-03-17T06:43:18;97470.81;;;13.34;58.35
3150;BME280;32503;47.748;8.960;2024-03-17T06:45:54;97465.16;;;13.62;57.56
3150;BME280;32503;47.748;8.960;2024-03-17T06:48:22;97472.28;;;13.90;56.81
3150;BME280;32503;47.748;8.960;2024-03-17T06:50:50;97473.56;;;14.19;55.81
3150;BME280;32503;47.748;8.960;2024-03-17T06:53:18;97467.91;;;14.54;55.07
3150;BME280;32503;47.748;8.960;2024-03-17T06:55:52;97446.25;;;14.88;54.18
3150;BME280;32503;47.748;8.960;2024-03-17T06:58:25;97458.06;;;15.30;53.67
3150;BME280;32503;47.748;8.960;2024-03-17T07:00:54;97452.97;;;15.25;52.79
3150;BME280;32503;47.748;8.960;2024-03-17T07:03:24;97452.44;;;15.15;52.87
3150;BME280;32503;47.748;8.960;2024-03-17T07:05:53;97450.88;;;15.14;52.81
3150;BME280;32503;47.748;8.960;2024-03-17T07:08:22;97449.38;;;15.21;53.00
3150;BME280;32503;47.748;8.960;2024-03-17T07:11:01;97449.22;;;15.40;52.98
3150;BME280;32503;47.748;8.960;2024-03-17T07:13:31;97450.94;;;15.52;52.75
3150;BME280;32503;47.748;8.960;2024-03-17T07:15:59;97447.91;;;15.61;52.21
3150;BME280;32503;47.748;8.960;2024-03-17T07:18:27;97439.75;;;15.61;51.20
3150;BME280;32503;47.748;8.960;2024-03-17T07:20:57;97461.25;;;15.35;51.91
3150;BME280;32503;47.748;8.960;2024-03-17T07:23:25;97458.97;;;15.07;52.14
3150;BME280;32503;47.748;8.960;2024-03-17T07:25:52;97452.06;;;14.87;52.84
3150;BME280;32503;47.748;8.960;2024-03-17T07:28:20;97452.84;;;14.60;53.44
3150;BME280;32503;47.748;8.960;2024-03-17T07:30:50;97451.16;;;14.29;54.22
3150;BME280;32503;47.748;8.960;2024-03-17T07:33:17;97456.53;;;13.79;56.26
3150;BME280;32503;47.748;8.960;2024-03-17T07:35:50;97447.44;;;13.49;56.86
3150;BME280;32503;47.748;8.960;2024-03-17T07:38:18;97455.50;;;13.25;57.51
3150;BME280;32503;47.748;8.960;2024-03-17T07:40:55;97451.91;;;13.21;58.20
3150;BME280;32503;47.748;8.960;2024-03-17T07:43:23;97451.63;;;13.07;58.76
3150;BME280;32503;47.748;8.960;2024-03-17T07:45:59;97450.31;;;12.81;59.54
3150;BME280;32503;47.748;8.960;2024-03-17T07:48:28;97454.56;;;12.63;60.12
3150;BME280;32503;47.748;8.960;2024-03-17T07:50:56;97460.25;;;12.58;60.81
3150;BME280;32503;47.748;8.960;2024-03-17T07:53:23;97446.94;;;12.52;60.66
3150;BME280;32503;47.748;8.960;2024-03-17T07:56:03;97448.38;;;12.46;60.94
3150;BME280;32503;47.748;8.960;2024-03-17T07:58:32;97442.34;;;12.37;61.44
3150;BME280;32503;47.748;8.960;2024-03-17T08:01:02;97439.38;;;12.10;62.34
3150;BME280;32503;47.748;8.960;2024-03-17T08:03:30;97440.00;;;12.20;62.32
3150;BME280;32503;47.748;8.960;2024-03-17T08:05:58;97446.97;;;12.37;62.12
3150;BME280;32503;47.748;8.960;2024-03-17T08:08:25;97449.56;;;12.65;62.07
3150;BME280;32503;47.748;8.960;2024-03-17T08:10:52;97455.28;;;12.79;62.00
3150;BME280;32503;47.748;8.960;2024-03-17T08:13:20;97454.91;;;12.97;61.64
3150;BME280;32503;47.748;8.960;2024-03-17T08:15:56;97437.19;;;13.03;61.28
3150;BME280;32503;47.748;8.960;2024-03-17T08:18:25;97455.94;;;13.27;60.84
3150;BME280;32503;47.748;8.960;2024-03-17T08:20:53;97454.94;;;13.36;60.36
3150;BME280;32503;47.748;8.960;2024-03-17T08:23:21;97445.66;;;13.56;60.07
3150;BME280;32503;47.748;8.960;2024-03-17T08:25:52;97446.78;;;13.75;59.17
3150;BME280;32503;47.748;8.960;2024-03-17T08:28:19;97441.16;;;13.87;58.81
3150;BME280;32503;47.748;8.960;2024-03-17T08:30:54;97447.81;;;14.13;58.22
3150;BME280;32503;47.748;8.960;2024-03-17T08:33:22;97441.94;;;14.34;58.07
3150;BME280;32503;47.748;8.960;2024-03-17T08:35:55;97419.56;;;14.44;57.75
3150;BME280;32503;47.748;8.960;2024-03-17T08:38:23;97434.03;;;14.52;57.23
3150;BME280;32503;47.748;8.960;2024-03-17T08:40:51;97428.66;;;14.55;57.26
3150;BME280;32503;47.748;8.960;2024-03-17T08:43:18;97427.47;;;14.53;56.63
3150;BME280;32503;47.748;8.960;2024-03-17T08:45:54;97433.00;;;14.33;57.08
3150;BME280;32503;47.748;8.960;2024-03-17T08:48:21;97430.47;;;14.21;57.88
3150;BME280;32503;47.748;8.960;2024-03-17T08:50:50;97426.16;;;14.20;58.40
3150;BME280;32503;47.748;8.960;2024-03-17T08:53:19;97423.34;;;14.39;57.90
3150;BME280;32503;47.748;8.960;2024-03-17T08:55:46;97419.94;;;14.69;57.63
3150;BME280;32503;47.748;8.960;2024-03-17T08:58:13;97422.34;;;15.05;57.38
3150;BME280;32503;47.748;8.960;2024-03-17T09:00:41;97411.38;;;15.31;56.81
3150;BME280;32503;47.748;8.960;2024-03-17T09:03:09;97423.06;;;15.66;55.05
3150;BME280;32503;47.748;8.960;2024-03-17T09:05:36;97426.13;;;16.02;54.72
3150;BME280;32503;47.748;8.960;2024-03-17T09:08:04;97438.84;;;16.32;53.07
3150;BME280;32503;47.748;8.960;2024-03-17T09:10:40;97428.22;;;16.19;52.75
3150;BME280;32503;47.748;8.960;2024-03-17T09:13:07;97431.66;;;16.09;52.93
3150;BME280;32503;47.748;8.960;2024-03-17T09:15:38;97414.78;;;15.96;53.54
3150;BME280;32503;47.748;8.960;2024-03-17T09:18:05;97426.00;;;15.87;53.44
3150;BME280;32503;47.748;8.960;2024-03-17T09:20:32;97423.22;;;15.80;54.13
3150;BME280;32503;47.748;8.960;2024-03-17T09:22:59;97418.59;;;15.50;53.97
3150;BME280;32503;47.748;8.960;2024-03-17T09:25:26;97427.34;;;15.33;54.97
3150;BME280;32503;47.748;8.960;2024-03-17T09:27:54;97427.34;;;15.33;55.34
3150;BME280;32503;47.748;8.960;2024-03-17T09:30:21;97426.63;;;15.36;54.93
3150;BME280;32503;47.748;8.960;2024-03-17T09:32:48;97412.66;;;15.41;55.31
3150;BME280;32503;47.748;8.960;2024-03-17T09:35:15;97418.53;;;15.43;54.92
3150;BME280;32503;47.748;8.960;2024-03-17T09:37:42;97407.56;;;15.36;55.49
3150;BME280;32503;47.748;8.960;2024-03-17T09:40:14;97413.22;;;15.58;55.76
3150;BME280;32503;47.748;8.960;2024-03-17T09:42:41;97408.78;;;15.76;55.59
3150;BME280;32503;47.748;8.960;2024-03-17T09:45:10;97407.00;;;15.98;55.08
3150;BME280;32503;47.748;8.960;2024-03-17T09:47:39;97406.25;;;15.98;54.72
3150;BME280;32503;47.748;8.960;2024-03-17T09:50:13;97404.59;;;15.89;54.56
3150;BME280;32503;47.748;8.960;2024-03-17T09:52:44;97408.97;;;15.98;54.66
3150;BME280;32503;47.748;8.960;2024-03-17T09:55:16;97405.94;;;16.06;54.83
3150;BME280;32503;47.748;8.960;2024-03-17T09:57:44;97406.84;;;16.25;54.40
3150;BME280;32503;47.748;8.960;2024-03-17T10:00:14;97394.81;;;16.29;54.37
3150;BME280;32503;47.748;8.960;2024-03-17T10:02:43;97393.78;;;16.52;53.75
3150;BME280;32503;47.748;8.960;2024-03-17T10:05:29;97402.53;;;16.83;53.13
3150;BME280;32503;47.748;8.960;2024-03-17T10:07:56;97406.50;;;16.85;52.45
3150;BME280;32503;47.748;8.960;2024-03-17T10:10:23;97405.69;;;16.85;52.66
3150;BME280;32503;47.748;8.960;2024-03-17T10:12:51;97401.06;;;16.93;52.77
3150;BME280;32503;47.748;8.960;2024-03-17T10:15:20;97405.75;;;16.99;52.67
3150;BME280;32503;47.748;8.960;2024-03-17T10:17:47;97391.72;;;17.04;52.32
3150;BME280;32503;47.748;8.960;2024-03-17T10:20:16;97389.88;;;17.23;52.20
3150;BME280;32503;47.748;8.960;2024-03-17T10:23:00;97387.97;;;17.49;51.76
3150;BME280;32503;47.748;8.960;2024-03-17T10:25:29;97387.22;;;17.73;51.24
3150;BME280;32503;47.748;8.960;2024-03-17T10:27:57;97397.03;;;17.85;50.78
3150;BME280;32503;47.748;8.960;2024-03-17T10:30:25;97395.09;;;17.93;50.33
3150;BME280;32503;47.748;8.960;2024-03-17T10:32:57;97391.19;;;17.97;50.23
3150;BME280;32503;47.748;8.960;2024-03-17T10:35:30;97393.53;;;18.13;50.03
3150;BME280;32503;47.748;8.960;2024-03-17T10:38:00;97388.84;;;18.17;49.40
3150;BME280;32503;47.748;8.960;2024-03-17T10:40:28;97392.78;;;18.24;49.65
3150;BME280;32503;47.748;8.960;2024-03-17T10:42:57;97392.78;;;18.24;49.28
3150;BME280;32503;47.748;8.960;2024-03-17T10:45:28;97399.81;;;18.28;49.50
3150;BME280;32503;47.748;8.960;2024-03-17T10:48:00;97402.13;;;18.37;49.09
3150;BME280;32503;47.748;8.960;2024-03-17T10:50:30;97390.41;;;18.26;49.31
3150;BME280;32503;47.748;8.960;2024-03-17T10:53:02;97394.72;;;18.27;49.66
3150;BME280;32503;47.748;8.960;2024-03-17T10:55:43;97409.19;;;18.20;49.22
3150;BME280;32503;47.748;8.960;2024-03-17T10:58:23;97408.38;;;17.98;49.56
3150;BME280;32503;47.748;8.960;2024-03-17T11:00:52;97409.97;;;17.88;49.88
3150;BME280;32503;47.748;8.960;2024-03-17T11:03:20;97406.78;;;17.72;50.41
3150;BME280;32503;47.748;8.960;2024-03-17T11:05:50;97402.84;;;17.62;50.21
3150;BME280;32503;47.748;8.960;2024-03-17T11:08:23;97413.31;;;17.31;50.83
3150;BME280;32503;47.748;8.960;2024-03-17T11:10:52;97405.72;;;16.96;51.70
3150;BME280;32503;47.748;8.960;2024-03-17T11:13:24;97410.16;;;16.52;52.81
3150;BME280;32503;47.748;8.960;2024-03-17T11:15:53;97388.34;;;16.04;53.62
3150;BME280;32503;47.748;8.960;2024-03-17T11:18:38;97405.59;;;16.11;54.05
3150;BME280;32503;47.748;8.960;2024-03-17T11:21:20;97389.59;;;16.10;54.36
3150;BME280;32503;47.748;8.960;2024-03-17T11:23:58;97394.56;;;15.97;54.61
3150;BME280;32503;47.748;8.960;2024-03-17T11:26:33;97413.44;;;16.20;54.77
3150;BME280;32503;47.748;8.960;2024-03-17T11:29:01;97407.34;;;16.38;54.63
3150;BME280;32503;47.748;8.960;2024-03-17T11:31:44;97412.84;;;16.45;54.04
3150;BME280;32503;47.748;8.960;2024-03-17T11:34:29;97403.91;;;16.52;53.84
3150;BME280;32503;47.748;8.960;2024-03-17T11:36:58;97405.16;;;16.61;53.50
3150;BME280;32503;47.748;8.960;2024-03-17T11:39:53;97417.31;;;16.75;53.44
3150;BME280;32503;47.748;8.960;2024-03-17T11:42:25;97393.84;;;16.63;53.01
3150;BME280;32503;47.748;8.960;2024-03-17T11:45:00;97420.78;;;16.64;53.13
3150;BME280;32503;47.748;8.960;2024-03-17T11:47:44;97413.38;;;16.68;53.40
3150;BME280;32503;47.748;8.960;2024-03-17T11:50:10;97404.75;;;16.59;53.77
3150;BME280;32503;47.748;8.960;2024-03-17T11:52:40;97401.47;;;16.39;53.82
3150;BME280;32503;47.748;8.960;2024-03-17T11:55:16;97407.22;;;16.23;54.04
3150;BME280;32503;47.748;8.960;2024-03-17T11:57:44;97398.91;;;16.09;54.82
3150;BME280;32503;47.748;8.960;2024-03-17T12:00:20;97404.06;;;16.18;54.82
3150;BME280;32503;47.748;8.960;2024-03-17T12:02:50;97386.91;;;16.17;54.86
3150;BME280;32503;47.748;8.960;2024-03-17T12:05:17;97394.81;;;16.33;54.37
3150;BME280;32503;47.748;8.960;2024-03-17T12:07:44;97388.44;;;16.15;54.73
3150;BME280;32503;47.748;8.960;2024-03-17T12:10:11;97392.03;;;16.22;54.49
3150;BME280;32503;47.748;8.960;2024-03-17T12:12:40;97385.88;;;16.33;54.70
3150;BME280;32503;47.748;8.960;2024-03-17T12:15:17;97386.50;;;16.15;53.75
3150;BME280;32503;47.748;8.960;2024-03-17T12:17:45;97380.66;;;16.13;54.59
3150;BME280;32503;47.748;8.960;2024-03-17T12:20:20;97361.50;;;16.06;54.29
3150;BME280;32503;47.748;8.960;2024-03-17T12:22:48;97356.91;;;16.17;54.23
3150;BME280;32503;47.748;8.960;2024-03-17T12:25:18;97380.38;;;16.29;53.36
3150;BME280;32503;47.748;8.960;2024-03-17T12:27:46;97369.84;;;16.27;53.59
3150;BME280;32503;47.748;8.960;2024-03-17T12:30:15;97374.13;;;16.28;53.40
3150;BME280;32503;47.748;8.960;2024-03-17T12:32:43;97356.97;;;16.24;53.79
3150;BME280;32503;47.748;8.960;2024-03-17T12:35:15;97351.50;;;16.24;53.63
3150;BME280;32503;47.748;8.960;2024-03-17T12:37:45;97360.84;;;16.23;53.65
3150;BME280;32503;47.748;8.960;2024-03-17T12:40:22;97362.09;;;16.33;53.70
3150;BME280;32503;47.748;8.960;2024-03-17T12:42:50;97362.84;;;16.34;53.33
3150;BME280;32503;47.748;8.960;2024-03-17T12:45:20;97365.50;;;16.19;53.34
3150;BME280;32503;47.748;8.960;2024-03-17T12:47:49;97351.72;;;16.01;52.89
3150;BME280;32503;47.748;8.960;2024-03-17T12:50:15;97363.78;;;16.00;53.88
3150;BME280;32503;47.748;8.960;2024-03-17T12:52:52;97359.88;;;15.98;54.41
3150;BME280;32503;47.748;8.960;2024-03-17T12:55:19;97366.09;;;15.95;54.68
3150;BME280;32503;47.748;8.960;2024-03-17T12:58:08;97352.09;;;16.00;54.56
3150;BME280;32503;47.748;8.960;2024-03-17T13:00:58;97359.13;;;16.01;54.10
3150;BME280;32503;47.748;8.960;2024-03-17T13:03:28;97341.03;;;15.78;54.06
3150;BME280;32503;47.748;8.960;2024-03-17T13:05:57;97341.69;;;15.68;54.31
3150;BME280;32503;47.748;8.960;2024-03-17T13:08:26;97353.28;;;15.58;54.51
3150;BME280;32503;47.748;8.960;2024-03-17T13:10:53;97339.97;;;15.52;54.11
3150;BME280;32503;47.748;8.960;2024-03-17T13:13:20;97339.63;;;15.54;54.66
3150;BME280;32503;47.748;8.960;2024-03-17T13:15:47;97340.44;;;15.62;54.47
3150;BME280;32503;47.748;8.960;2024-03-17T13:18:17;97340.56;;;15.72;55.54
3150;BME280;32503;47.748;8.960;2024-03-17T13:20:45;97332.41;;;15.72;54.91
3150;BME280;32503;47.748;8.960;2024-03-17T13:23:13;97322.38;;;15.84;54.83